Whitesville, NY (14897)

4:22 PM EDT on August 21, 2014 (GMT -0400)
Wellsville Municipal-Tarantine | Change Station
CLOSE
Current Station
Airport
Location: Wellsville,
Elevation: 2123 ft
Nearby Weather Stations

Elev 2123 ft 42.11 °N, 77.98 °W | Updated 26 minutes ago

Clear
Clear
81 °F
Feels Like 82 °F
N
13
Wind Variable Wind from West

Today
High -- | Low -- °F
--% Chance of Precip.
Yesterday
High -- | Low -- °F
Precip. -- in
6:25 AM 8:02 PM
Waning Crescent, 12% visible
Pressure 29.99 in
Visibility 10.0 miles
Clouds Clear
Heat Index 82 °F
Dew Point 61 °F
Humidity 50%
Rainfall 0.00 in
Snow Depth Not available.
UV 6 out of 12
Pollen 9.40 out of 12
Ozone Good
PM2.5 Good
Flu Activity Not available.
METAR KELZ 211956Z AUTO 27011KT 10SM CLR 27/16 A3003 RMK AO2 LTG DSNT SE AND S SLP154 T02720161

More Conditions Fewer Conditions

Pressure 29.99 in
Visibility 10.0 miles
Clouds Clear
Heat Index 82 °F
Dew Point 61 °F
Humidity 50%
Rainfall 0.00 in
Snow Depth Not available.
UV 6 out of 12
Pollen 9.40 out of 12
Ozone Good
PM2.5 Good
Flu Activity Not available.
METAR KELZ 211956Z AUTO 27011KT 10SM CLR 27/16 A3003 RMK AO2 LTG DSNT SE AND S SLP154 T02720161

More Conditions Fewer Conditions

10-Day Weather Forecast

Almanac

Astronomy

Aug. 21, 2014 Rise Set
Actual Time 6:25 AM EDT 8:02 PM EDT
Civil Twilight 5:55 AM EDT 8:32 PM EDT
Nautical Twilight 5:19 AM EDT 9:07 PM EDT
Astronomical Twilight 4:41 AM EDT 9:45 PM EDT
Moon 2:52 AM EDT 5:31 PM EDT
Length of Visible Light 14h 36m
Length of Day
13h 37m
Tomorrow will be 2m 36s shorter.
Waning Crescent, 12% of the Moon is Illuminated
Today
Waning Crescent
Aug 25
New
Sep 2
First Quarter
Sep 8
Full
Sep 15
Last Quarter

Today's Extremes

State Highs State Lows

Community

WunderPhotos

Upload Photos

1,746,018 photos uploaded!

WunderBlogs® & News

Nearby

Air Quality

  Air Quality AQ Index Pollutant
Yesterday Good
PM2.5
Yesterday Good
OZONE
Current Good
PM2.5
Current Good
OZONE
Thursday Moderate
OZONE
Thursday Good
PM2.5
Friday Good
OZONE
Friday Good
PM2.5

Snow Depth

Station Depth Elevation
No new snow has been reported.

Earthquake Activity

City Distance Mag. Time & Date
No recent earthquake activity has been reported nearby.
Minimum magnitude displayed is 2.5.

Coastal Water Temperatures

Place Temperature
No Stations Reporting

Nearby Weather Stations